createdAt,value
2023-01-09T00:01:33.953Z,99619.28
2023-01-09T00:04:02.832Z,99612.22
2023-01-09T00:06:31.485Z,99611.19
2023-01-09T00:08:59.947Z,99606.78
2023-01-09T00:11:28.327Z,99608.31
2023-01-09T00:13:58.074Z,99609.06
2023-01-09T00:16:26.830Z,99600.47
2023-01-09T00:18:55.297Z,99607.22
2023-01-09T00:21:24.059Z,99600.28
2023-01-09T00:23:55.058Z,99601.09
2023-01-09T00:26:23.886Z,99603.69
2023-01-09T00:28:54.164Z,99600.16
2023-01-09T00:31:23.952Z,99591.47
2023-01-09T00:33:56.686Z,99591.47
2023-01-09T00:36:25.055Z,99587.16
2023-01-09T00:38:53.755Z,99582.88
2023-01-09T00:41:26.010Z,99582.81
2023-01-09T00:43:58.321Z,99579.53
2023-01-09T00:46:32.579Z,99574.25
2023-01-09T00:49:03.303Z,99561.44
2023-01-09T00:51:31.767Z,99567.25
2023-01-09T00:54:00.653Z,99569.84
2023-01-09T00:56:29.030Z,99558.69
2023-01-09T00:58:57.607Z,99551.72
2023-01-09T01:01:26.118Z,99550.78
2023-01-09T01:03:56.689Z,99544.78
2023-01-09T01:06:42.772Z,99538.69
2023-01-09T01:09:11.134Z,99537.06
2023-01-09T01:11:39.498Z,99538.78
2023-01-09T01:14:07.991Z,99540.41
2023-01-09T01:16:36.464Z,99541.19
2023-01-09T01:19:06.209Z,99543.69
2023-01-09T01:21:34.561Z,99535.84
2023-01-09T01:24:02.931Z,99539.25
2023-01-09T01:26:31.319Z,99536.63
2023-01-09T01:29:00.127Z,99529.75
2023-01-09T01:31:28.488Z,99533.16
2023-01-09T01:33:56.818Z,99533.91
2023-01-09T01:36:26.495Z,99537.31
2023-01-09T01:38:54.918Z,99537.13
2023-01-09T01:41:30.254Z,99535.28
2023-01-09T01:44:01.644Z,99530.00
2023-01-09T01:46:30.524Z,99531.63
2023-01-09T01:49:02.223Z,99526.31
2023-01-09T01:51:35.927Z,99521.06
2023-01-09T01:54:09.275Z,99508.91
2023-01-09T01:56:41.544Z,99510.50
2023-01-09T01:59:14.955Z,99506.13
2023-01-09T02:01:50.200Z,99488.09
2023-01-09T02:04:18.949Z,99494.09
2023-01-09T02:06:51.476Z,99486.38
2023-01-09T02:09:22.848Z,99486.44
2023-01-09T02:11:53.362Z,99489.00
2023-01-09T02:14:25.493Z,99497.44
2023-01-09T02:17:02.570Z,99503.28
2023-01-09T02:19:58.640Z,99503.06
2023-01-09T02:22:36.956Z,99496.09
2023-01-09T02:25:27.380Z,99502.00
2023-01-09T02:28:28.789Z,99490.75
2023-01-09T02:31:09.029Z,99500.22
2023-01-09T02:33:51.263Z,99499.25
2023-01-09T02:36:29.514Z,99498.31
2023-01-09T02:39:17.154Z,99497.41
2023-01-09T02:41:51.980Z,99495.69
2023-01-09T02:44:23.531Z,99494.84
2023-01-09T02:47:03.726Z,99496.47
2023-01-09T02:49:33.751Z,99495.63
2023-01-09T02:52:14.752Z,99495.75
2023-01-09T02:54:55.547Z,99490.72
2023-01-09T02:57:37.902Z,99489.91
2023-01-09T03:00:13.623Z,99488.38
2023-01-09T03:02:50.879Z,99483.34
2023-01-09T03:05:26.139Z,99487.66
2023-01-09T03:08:01.733Z,99483.34
2023-01-09T03:10:42.514Z,99470.56
2023-01-09T03:13:15.185Z,99481.69
2023-01-09T03:15:49.562Z,99480.00
2023-01-09T03:18:21.560Z,99474.88
2023-01-09T03:20:51.059Z,99470.56
2023-01-09T03:23:19.533Z,99465.41
2023-01-09T03:25:48.076Z,99466.38
2023-01-09T03:28:27.178Z,99455.31
2023-01-09T03:30:55.963Z,99451.06
2023-01-09T03:33:25.689Z,99452.03
2023-01-09T03:35:54.000Z,99451.28
2023-01-09T03:38:22.405Z,99442.75
2023-01-09T03:40:51.340Z,99446.34
2023-01-09T03:43:19.837Z,99436.97
2023-01-09T03:45:48.244Z,99431.94
2023-01-09T03:48:16.693Z,99433.75
2023-01-09T03:50:47.383Z,99424.47
2023-01-09T03:53:16.232Z,99428.00
2023-01-09T03:55:46.435Z,99426.47
2023-01-09T03:58:15.299Z,99428.25
2023-01-09T04:00:45.927Z,99427.53
2023-01-09T04:03:14.497Z,99422.47
2023-01-09T04:05:43.173Z,99416.56
2023-01-09T04:08:13.295Z,99420.09
2023-01-09T04:10:42.104Z,99415.00
2023-01-09T04:13:10.495Z,99411.66
2023-01-09T04:15:38.834Z,99415.16
2023-01-09T04:18:07.297Z,99410.88
2023-01-09T04:20:35.970Z,99405.81
2023-01-09T04:23:04.342Z,99399.00
2023-01-09T04:25:34.122Z,99401.69
2023-01-09T04:28:02.478Z,99402.53
2023-01-09T04:30:30.898Z,99409.41
2023-01-09T04:32:59.246Z,99406.78
2023-01-09T04:35:27.623Z,99399.94
2023-01-09T04:37:55.975Z,99399.06
2023-01-09T04:40:24.336Z,99396.50
2023-01-09T04:42:54.042Z,99396.53
2023-01-09T04:45:22.498Z,99386.34
2023-01-09T04:47:50.851Z,99391.56
2023-01-09T04:50:19.550Z,99390.72
2023-01-09T04:52:47.915Z,99385.56
2023-01-09T04:55:16.302Z,99390.72
2023-01-09T04:57:44.737Z,99382.09
2023-01-09T05:00:14.984Z,99384.75
2023-01-09T05:02:43.561Z,99379.63
2023-01-09T05:05:12.367Z,99387.41
2023-01-09T05:07:41.085Z,99380.69
2023-01-09T05:10:11.041Z,99383.38
2023-01-09T05:12:39.810Z,99381.75
2023-01-09T05:15:09.869Z,99384.38
2023-01-09T05:17:39.585Z,99374.22
2023-01-09T05:20:08.793Z,99379.38
2023-01-09T05:22:37.128Z,99369.13
2023-01-09T05:25:06.064Z,99367.41
2023-01-09T05:27:34.426Z,99363.97
2023-01-09T05:30:02.776Z,99362.25
2023-01-09T05:32:31.163Z,99363.06
2023-01-09T05:35:00.883Z,99366.56
2023-01-09T05:37:29.225Z,99369.13
2023-01-09T05:39:57.634Z,99360.56
2023-01-09T05:42:26.033Z,99358.81
2023-01-09T05:44:54.458Z,99357.09
2023-01-09T05:47:22.804Z,99357.03
2023-01-09T05:49:51.197Z,99349.28
2023-01-09T05:52:20.899Z,99355.31
2023-01-09T05:54:49.274Z,99347.56
2023-01-09T05:57:18.199Z,99349.31
2023-01-09T05:59:46.593Z,99348.44
2023-01-09T06:02:15.206Z,99345.03
2023-01-09T06:04:44.438Z,99339.88
2023-01-09T06:07:17.284Z,99339.00
2023-01-09T06:09:49.298Z,99337.31
2023-01-09T06:12:17.657Z,99336.47
2023-01-09T06:14:46.111Z,99339.94
2023-01-09T06:17:14.463Z,99340.78
2023-01-09T06:19:42.837Z,99338.22
2023-01-09T06:22:11.226Z,99327.00
2023-01-09T06:24:39.561Z,99329.63
2023-01-09T06:27:09.303Z,99326.22
2023-01-09T06:29:37.656Z,99322.78
2023-01-09T06:32:06.848Z,99325.38
2023-01-09T06:34:35.376Z,99326.25
2023-01-09T06:37:03.720Z,99329.63
2023-01-09T06:39:32.087Z,99322.75
2023-01-09T06:42:00.431Z,99319.31
2023-01-09T06:44:30.173Z,99318.53
2023-01-09T06:46:58.528Z,99315.94
2023-01-09T06:49:26.928Z,99309.06
2023-01-09T06:51:55.320Z,99314.28
2023-01-09T06:54:23.859Z,99309.13
2023-01-09T06:56:52.305Z,99314.28
2023-01-09T06:59:20.867Z,99301.47
2023-01-09T07:01:50.705Z,99303.22
2023-01-09T07:04:21.928Z,99306.69
2023-01-09T07:06:50.992Z,99310.91
2023-01-09T07:09:19.354Z,99307.47
2023-01-09T07:11:47.869Z,99305.78
2023-01-09T07:14:16.321Z,99292.06
2023-01-09T07:16:44.657Z,99295.53
2023-01-09T07:19:14.376Z,99299.81
2023-01-09T07:21:42.789Z,99298.06
2023-01-09T07:24:11.107Z,99300.69
2023-01-09T07:26:39.581Z,99295.53
2023-01-09T07:29:07.946Z,99288.75
2023-01-09T07:31:36.392Z,99303.31
2023-01-09T07:34:04.765Z,99301.59
2023-01-09T07:36:34.497Z,99312.00
2023-01-09T07:39:02.866Z,99308.53
2023-01-09T07:41:31.210Z,99319.72
2023-01-09T07:43:59.560Z,99311.22
2023-01-09T07:46:29.138Z,99309.50
2023-01-09T07:48:57.557Z,99307.94
2023-01-09T07:51:26.154Z,99315.66
2023-01-09T07:53:55.873Z,99318.25
2023-01-09T07:56:24.288Z,99315.72
2023-01-09T07:58:52.709Z,99310.59
2023-01-09T08:01:21.167Z,99306.34
2023-01-09T08:03:49.595Z,99323.50
2023-01-09T08:06:17.924Z,99330.44
2023-01-09T08:08:46.385Z,99325.28
2023-01-09T08:11:16.108Z,99331.28
2023-01-09T08:13:44.487Z,99326.16
2023-01-09T08:16:13.024Z,99333.84
2023-01-09T08:18:41.405Z,99332.19
2023-01-09T08:21:13.723Z,99340.84
2023-01-09T08:23:42.072Z,99327.19
2023-01-09T08:26:10.505Z,99328.06
2023-01-09T08:28:40.249Z,99328.94
2023-01-09T08:31:08.658Z,99328.94
2023-01-09T08:33:40.376Z,99326.41
2023-01-09T08:36:09.564Z,99323.88
2023-01-09T08:38:37.984Z,99323.94
2023-01-09T08:41:31.475Z,99325.66
2023-01-09T08:44:18.543Z,99336.97
2023-01-09T08:47:04.275Z,99335.28
2023-01-09T08:49:32.700Z,99337.88
2023-01-09T08:52:01.097Z,99348.28
2023-01-09T08:54:31.226Z,99346.59
2023-01-09T08:56:59.912Z,99346.69
2023-01-09T08:59:29.651Z,99354.53
2023-01-09T09:01:58.397Z,99363.25
2023-01-09T09:04:27.104Z,99363.28
2023-01-09T09:06:55.633Z,99345.22
2023-01-09T09:09:25.203Z,99354.84
2023-01-09T09:11:53.942Z,99349.63
2023-01-09T09:14:40.086Z,99360.94
2023-01-09T09:17:09.914Z,99350.63
2023-01-09T09:19:39.516Z,99350.66
2023-01-09T09:22:07.977Z,99344.69
2023-01-09T09:24:36.432Z,99351.69
2023-01-09T09:27:05.134Z,99359.41
2023-01-09T09:29:33.467Z,99367.13
2023-01-09T09:32:02.015Z,99379.25
2023-01-09T09:34:31.847Z,99387.94
2023-01-09T09:37:00.355Z,99381.09
2023-01-09T09:39:28.774Z,99378.59
2023-01-09T09:42:38.750Z,99377.78
2023-01-09T09:45:19.293Z,99376.94
2023-01-09T09:47:57.814Z,99376.09
2023-01-09T09:50:59.299Z,99384.91
2023-01-09T09:53:32.078Z,99384.91
2023-01-09T09:56:01.736Z,99379.16
2023-01-09T09:58:35.655Z,99378.38
2023-01-09T10:01:05.918Z,99388.88
2023-01-09T10:03:38.456Z,99390.78
2023-01-09T10:06:14.151Z,99383.00
2023-01-09T10:08:49.439Z,99390.84
2023-01-09T10:11:23.966Z,99388.25
2023-01-09T10:14:16.028Z,99383.94
2023-01-09T10:17:14.081Z,99388.63
2023-01-09T10:19:54.701Z,99390.34
2023-01-09T10:22:33.277Z,99390.63
2023-01-09T10:25:13.941Z,99401.09
2023-01-09T10:27:59.278Z,99401.84
2023-01-09T10:30:36.994Z,99406.25
2023-01-09T10:33:19.175Z,99414.97
2023-01-09T10:35:59.147Z,99412.47
2023-01-09T10:38:34.754Z,99414.31
2023-01-09T10:41:09.761Z,99415.28
2023-01-09T10:43:45.222Z,99405.81
2023-01-09T10:46:19.731Z,99413.72
2023-01-09T10:48:53.367Z,99412.09
2023-01-09T10:51:25.203Z,99419.00
2023-01-09T10:53:57.385Z,99423.31
2023-01-09T10:56:28.304Z,99421.50
2023-01-09T10:58:57.664Z,99425.06
2023-01-09T11:01:28.093Z,99426.09
2023-01-09T11:03:59.088Z,99432.22
2023-01-09T11:06:37.516Z,99444.22
2023-01-09T11:09:07.608Z,99446.75
2023-01-09T11:11:37.852Z,99445.03
2023-01-09T11:14:13.956Z,99442.50
2023-01-09T11:16:53.804Z,99450.50
2023-01-09T11:19:23.446Z,99445.25
2023-01-09T11:21:52.385Z,99440.88
2023-01-09T11:24:31.447Z,99462.59
2023-01-09T11:27:23.476Z,99462.59
2023-01-09T11:30:27.897Z,99459.28
2023-01-09T11:32:57.765Z,99472.19
2023-01-09T11:35:33.076Z,99476.38
2023-01-09T11:38:16.123Z,99481.63
2023-01-09T11:40:51.201Z,99480.00
2023-01-09T11:43:25.496Z,99481.69
2023-01-09T11:46:00.993Z,99484.38
2023-01-09T11:48:33.845Z,99476.59
2023-01-09T11:51:04.231Z,99481.03
2023-01-09T11:53:49.112Z,99484.44
2023-01-09T11:56:19.357Z,99479.28
2023-01-09T11:58:47.780Z,99484.50
2023-01-09T12:01:39.025Z,99495.88
2023-01-09T12:04:20.833Z,99500.19
2023-01-09T12:07:20.461Z,99508.88
2023-01-09T12:09:57.451Z,99505.56
2023-01-09T12:12:32.939Z,99516.16
2023-01-09T12:15:10.205Z,99512.88
2023-01-09T12:18:03.152Z,99519.13
2023-01-09T12:20:48.466Z,99527.75
2023-01-09T12:23:26.593Z,99526.78
2023-01-09T12:26:08.778Z,99529.41
2023-01-09T12:29:00.214Z,99527.81
2023-01-09T12:31:43.015Z,99519.09
2023-01-09T12:34:27.922Z,99513.03
2023-01-09T12:37:11.790Z,99515.56
2023-01-09T12:39:49.980Z,99524.34
2023-01-09T12:42:32.455Z,99526.97
2023-01-09T12:45:08.351Z,99516.69
2023-01-09T12:47:46.416Z,99528.03
2023-01-09T12:50:29.524Z,99520.44
2023-01-09T12:53:07.543Z,99525.75
2023-01-09T12:55:39.885Z,99531.75
2023-01-09T12:58:15.279Z,99535.09
2023-01-09T13:00:50.282Z,99531.59
2023-01-09T13:03:25.999Z,99535.91
2023-01-09T13:05:57.416Z,99537.72
2023-01-09T13:08:32.177Z,99540.34
2023-01-09T13:11:19.545Z,99543.66
2023-01-09T13:13:52.611Z,99543.66
2023-01-09T13:16:27.750Z,99542.34
2023-01-09T13:19:02.452Z,99544.84
2023-01-09T13:21:30.888Z,99542.41
2023-01-09T13:24:07.580Z,99538.19
2023-01-09T13:26:38.944Z,99535.72
2023-01-09T13:29:14.077Z,99541.03
2023-01-09T13:32:23.891Z,99546.28
2023-01-09T13:34:54.993Z,99545.53
2023-01-09T13:37:26.961Z,99537.94
2023-01-09T13:40:00.746Z,99530.94
2023-01-09T13:42:44.224Z,99530.25
2023-01-09T13:45:24.702Z,99531.09
2023-01-09T13:48:26.202Z,99535.56
2023-01-09T13:50:55.934Z,99542.56
2023-01-09T13:53:47.907Z,99546.13
2023-01-09T13:56:16.442Z,99554.53
2023-01-09T13:59:09.240Z,99557.84
2023-01-09T14:01:43.330Z,99574.91
2023-01-09T14:04:45.623Z,99584.41
2023-01-09T14:07:27.741Z,99586.50
2023-01-09T14:10:00.625Z,99591.47
2023-01-09T14:12:31.890Z,99596.59
2023-01-09T14:15:03.140Z,99607.78
2023-01-09T14:17:35.133Z,99611.22
2023-01-09T14:20:08.228Z,99602.41
2023-01-09T14:22:46.189Z,99606.56
2023-01-09T14:25:29.311Z,99619.59
2023-01-09T14:28:19.984Z,99612.66
2023-01-09T14:31:31.224Z,99619.56
2023-01-09T14:34:34.139Z,99627.09
2023-01-09T14:37:04.409Z,99626.31
2023-01-09T14:39:33.824Z,99624.38
2023-01-09T14:42:08.241Z,99634.94
2023-01-09T14:44:46.172Z,99646.75
2023-01-09T14:47:22.657Z,99651.06
2023-01-09T14:49:56.573Z,99650.13
2023-01-09T14:52:31.518Z,99655.34
2023-01-09T14:55:03.378Z,99652.66
2023-01-09T14:57:34.069Z,99662.38
2023-01-09T15:00:04.665Z,99664.88
2023-01-09T15:02:37.205Z,99659.63
2023-01-09T15:05:09.515Z,99662.25
2023-01-09T15:07:45.437Z,99662.31
2023-01-09T15:10:19.902Z,99661.38
2023-01-09T15:12:50.916Z,99662.09
2023-01-09T15:15:21.674Z,99666.44
2023-01-09T15:17:56.264Z,99668.13
2023-01-09T15:20:27.224Z,99669.06
2023-01-09T15:22:57.910Z,99680.09
2023-01-09T15:25:38.117Z,99688.59
2023-01-09T15:28:30.715Z,99687.66
2023-01-09T15:31:04.357Z,99692.78
2023-01-09T15:33:33.814Z,99699.63
2023-01-09T15:36:16.038Z,99699.63
2023-01-09T15:38:46.865Z,99701.25
2023-01-09T15:41:35.394Z,99695.13
2023-01-09T15:44:04.979Z,99704.56
2023-01-09T15:46:33.757Z,99703.78
2023-01-09T15:49:02.439Z,99696.88
2023-01-09T15:51:32.826Z,99704.63
2023-01-09T15:54:04.120Z,99705.66
2023-01-09T15:56:33.449Z,99712.44
2023-01-09T15:59:02.134Z,99720.28
2023-01-09T16:01:31.754Z,99722.81
2023-01-09T16:04:07.020Z,99728.06
2023-01-09T16:06:37.260Z,99734.09
2023-01-09T16:09:17.151Z,99734.00
2023-01-09T16:11:52.021Z,99740.13
2023-01-09T16:14:23.135Z,99732.31
2023-01-09T16:16:52.890Z,99740.06
2023-01-09T16:19:32.429Z,99752.97
2023-01-09T16:22:03.037Z,99750.38
2023-01-09T16:24:41.816Z,99750.41
2023-01-09T16:27:30.475Z,99743.47
2023-01-09T16:30:00.144Z,99739.97
2023-01-09T16:32:31.167Z,99741.69
2023-01-09T16:35:00.878Z,99744.22
2023-01-09T16:37:29.973Z,99738.97
2023-01-09T16:40:25.955Z,99740.56
2023-01-09T16:43:03.412Z,99737.16
2023-01-09T16:45:34.600Z,99746.63
2023-01-09T16:48:04.606Z,99751.00
2023-01-09T16:50:32.987Z,99759.63
2023-01-09T16:53:12.139Z,99760.38
2023-01-09T16:55:41.983Z,99777.47
2023-01-09T16:58:17.008Z,99777.38
2023-01-09T17:00:47.932Z,99772.19
2023-01-09T17:03:17.200Z,99765.13
2023-01-09T17:05:45.756Z,99764.28
2023-01-09T17:08:22.257Z,99765.94
2023-01-09T17:10:53.755Z,99766.78
2023-01-09T17:13:22.637Z,99768.44
2023-01-09T17:15:51.577Z,99764.81
2023-01-09T17:18:21.802Z,99763.97
2023-01-09T17:20:51.851Z,99761.34
2023-01-09T17:23:22.428Z,99758.97
2023-01-09T17:26:14.142Z,99765.81
2023-01-09T17:28:45.985Z,99766.78
2023-01-09T17:31:14.565Z,99760.56
2023-01-09T17:33:43.027Z,99762.38
2023-01-09T17:36:28.535Z,99765.72
2023-01-09T17:38:56.881Z,99768.16
2023-01-09T17:41:29.110Z,99774.19
2023-01-09T17:43:58.481Z,99779.28
2023-01-09T17:46:29.980Z,99785.09
2023-01-09T17:48:59.121Z,99789.28
2023-01-09T17:51:29.314Z,99794.31
2023-01-09T17:53:58.273Z,99790.84
2023-01-09T17:56:32.070Z,99789.91
2023-01-09T17:59:00.483Z,99795.00
2023-01-09T18:01:28.940Z,99793.31
2023-01-09T18:03:57.569Z,99799.50
2023-01-09T18:06:26.019Z,99804.66
2023-01-09T18:08:55.716Z,99808.03
2023-01-09T18:11:25.737Z,99804.81
2023-01-09T18:13:56.225Z,99805.59
2023-01-09T18:16:26.586Z,99804.66
2023-01-09T18:18:57.481Z,99812.47
2023-01-09T18:21:27.938Z,99815.16
2023-01-09T18:23:57.740Z,99816.75
2023-01-09T18:26:26.396Z,99822.81
2023-01-09T18:28:59.008Z,99815.78
2023-01-09T18:31:29.009Z,99823.41
2023-01-09T18:34:02.136Z,99822.59
2023-01-09T18:36:30.841Z,99835.41
2023-01-09T18:39:01.004Z,99835.38
2023-01-09T18:41:30.650Z,99850.03
2023-01-09T18:44:01.758Z,99850.88
2023-01-09T18:46:32.318Z,99853.38
2023-01-09T18:49:02.302Z,99847.28
2023-01-09T18:51:31.210Z,99856.16
2023-01-09T18:53:59.675Z,99861.22
2023-01-09T18:56:28.078Z,99856.75
2023-01-09T18:58:57.916Z,99863.06
2023-01-09T19:01:29.344Z,99863.91
2023-01-09T19:03:59.293Z,99870.66
2023-01-09T19:06:28.748Z,99878.63
2023-01-09T19:08:57.175Z,99878.41
2023-01-09T19:11:25.759Z,99886.97
2023-01-09T19:13:54.327Z,99886.91
2023-01-09T19:16:22.905Z,99879.25
2023-01-09T19:18:52.678Z,99885.44
2023-01-09T19:21:23.669Z,99889.59
2023-01-09T19:23:52.077Z,99894.16
2023-01-09T19:26:23.781Z,99891.53
2023-01-09T19:28:55.075Z,99898.31
2023-01-09T19:31:24.695Z,99897.41
2023-01-09T19:33:54.962Z,99895.50
2023-01-09T19:36:23.451Z,99893.81
2023-01-09T19:38:57.302Z,99895.50
2023-01-09T19:41:25.786Z,99903.47
2023-01-09T19:43:54.217Z,99915.69
2023-01-09T19:46:25.026Z,99913.09
2023-01-09T19:48:58.336Z,99905.38
2023-01-09T19:51:26.834Z,99915.78
2023-01-09T19:56:29.925Z,99910.81
2023-01-09T19:58:59.975Z,99914.34
2023-01-09T20:01:30.795Z,99918.69
2023-01-09T20:04:03.302Z,99920.97
2023-01-09T20:06:32.482Z,99923.34
2023-01-09T20:09:03.284Z,99926.03
2023-01-09T20:11:33.836Z,99928.84
2023-01-09T20:14:03.887Z,99923.59
2023-01-09T20:16:34.416Z,99922.72
2023-01-09T20:19:07.361Z,99924.44
2023-01-09T20:21:36.770Z,99945.31
2023-01-09T20:24:07.264Z,99937.66
2023-01-09T20:26:37.241Z,99943.81
2023-01-09T20:29:05.597Z,99940.13
2023-01-09T20:31:34.462Z,99938.28
2023-01-09T20:34:04.569Z,99939.81
2023-01-09T20:36:34.861Z,99950.47
2023-01-09T20:39:05.729Z,99953.81
2023-01-09T20:41:34.832Z,99947.00
2023-01-09T20:44:06.895Z,99959.34
2023-01-09T20:46:37.990Z,99962.72
2023-01-09T20:49:09.414Z,99964.16
2023-01-09T20:51:42.399Z,99971.13
2023-01-09T20:54:10.739Z,99975.56
2023-01-09T20:56:39.141Z,99986.88
2023-01-09T20:59:13.022Z,99982.31
2023-01-09T21:01:41.518Z,99980.63
2023-01-09T21:04:11.317Z,99991.63
2023-01-09T21:06:40.031Z,99995.97
2023-01-09T21:09:08.431Z,99999.22
2023-01-09T21:11:36.856Z,100002.16
2023-01-09T21:14:05.250Z,99994.47
2023-01-09T21:16:33.750Z,100009.16
2023-01-09T21:19:02.273Z,100012.41
2023-01-09T21:21:32.025Z,100013.38
2023-01-09T21:24:01.561Z,100015.13
2023-01-09T21:26:30.882Z,100025.56
2023-01-09T21:29:01.254Z,100033.22
2023-01-09T21:31:34.466Z,100037.38
2023-01-09T21:34:05.519Z,100043.22
2023-01-09T21:36:36.320Z,100039.00
2023-01-09T21:39:07.909Z,100050.19
2023-01-09T21:41:54.433Z,100052.91
2023-01-09T21:44:40.038Z,100050.09
2023-01-09T21:47:08.387Z,100055.28
2023-01-09T21:49:40.950Z,100059.44
2023-01-09T21:52:12.820Z,100069.75
2023-01-09T21:54:42.030Z,100074.00
2023-01-09T21:57:10.764Z,100073.19
2023-01-09T21:59:39.114Z,100079.94
2023-01-09T22:02:07.850Z,100081.50
2023-01-09T22:04:36.322Z,100094.38
2023-01-09T22:07:04.696Z,100092.44
2023-01-09T22:09:34.449Z,100106.16
2023-01-09T22:12:02.816Z,100111.50
2023-01-09T22:14:31.284Z,100116.63
2023-01-09T22:17:00.144Z,100121.88
2023-01-09T22:19:28.500Z,100124.44
2023-01-09T22:21:56.913Z,100125.09
2023-01-09T22:24:25.308Z,100125.81
2023-01-09T22:26:55.051Z,100127.50
2023-01-09T22:29:23.427Z,100137.69
2023-01-09T22:31:51.884Z,100137.00
2023-01-09T22:34:20.326Z,100145.47
2023-01-09T22:36:48.708Z,100149.84
2023-01-09T22:39:18.857Z,100150.75
2023-01-09T22:41:51.666Z,100153.34
2023-01-09T22:44:21.761Z,100153.28
2023-01-09T22:46:58.346Z,100161.78
2023-01-09T22:49:30.224Z,100169.50
2023-01-09T22:52:01.837Z,100172.75
2023-01-09T22:54:30.217Z,100171.13
2023-01-09T22:56:58.616Z,100179.59
2023-01-09T22:59:29.003Z,100181.28
2023-01-09T23:01:58.088Z,100191.81
2023-01-09T23:04:26.940Z,100198.84
2023-01-09T23:06:55.300Z,100195.53
2023-01-09T23:09:23.726Z,100198.06
2023-01-09T23:12:03.996Z,100193.38
2023-01-09T23:14:36.551Z,100194.66
2023-01-09T23:17:05.912Z,100205.56
2023-01-09T23:19:36.205Z,100207.31
2023-01-09T23:22:05.853Z,100211.91
2023-01-09T23:24:34.913Z,100219.38
2023-01-09T23:27:04.356Z,100228.00
2023-01-09T23:29:38.712Z,100232.06
2023-01-09T23:32:08.283Z,100228.56
2023-01-09T23:34:36.943Z,100232.00
2023-01-09T23:37:08.982Z,100230.06
2023-01-09T23:39:37.576Z,100234.31
2023-01-09T23:42:23.198Z,100234.38
2023-01-09T23:44:52.954Z,100238.75
2023-01-09T23:47:21.269Z,100245.47
2023-01-09T23:49:49.651Z,100246.59
2023-01-09T23:52:18.099Z,100247.44
2023-01-09T23:54:46.429Z,100263.72
2023-01-09T23:57:14.892Z,100260.28
2023-01-09T23:59:43.472Z,100271.59
